createdAt,value
2022-10-11T00:00:20.583Z,994.87
2022-10-11T00:01:20.655Z,994.94
2022-10-11T00:02:20.593Z,994.91
2022-10-11T00:03:20.563Z,994.96
2022-10-11T00:04:20.554Z,994.99
2022-10-11T00:05:20.551Z,994.96
2022-10-11T00:06:20.569Z,995.05
2022-10-11T00:07:20.548Z,995.00
2022-10-11T00:08:20.515Z,995.09
2022-10-11T00:09:20.538Z,995.05
2022-10-11T00:10:20.498Z,995.05
2022-10-11T00:11:20.491Z,995.07
2022-10-11T00:12:20.482Z,995.20
2022-10-11T00:13:20.465Z,995.21
2022-10-11T00:14:20.472Z,995.19
2022-10-11T00:15:20.444Z,995.23
2022-10-11T00:16:20.455Z,995.30
2022-10-11T00:17:20.421Z,995.32
2022-10-11T00:18:20.428Z,995.30
2022-10-11T00:19:20.395Z,995.29
2022-10-11T00:20:20.414Z,995.31
2022-10-11T00:21:20.383Z,995.37
2022-10-11T00:22:20.402Z,995.31
2022-10-11T00:23:20.368Z,995.40
2022-10-11T00:24:20.351Z,995.38
2022-10-11T00:25:20.347Z,995.45
2022-10-11T00:26:20.336Z,995.47
2022-10-11T00:27:20.359Z,995.46
2022-10-11T00:28:20.378Z,995.55
2022-10-11T00:29:20.298Z,995.59
2022-10-11T00:30:20.293Z,995.59
2022-10-11T00:31:20.285Z,995.58
2022-10-11T00:32:20.272Z,995.59
2022-10-11T00:33:20.280Z,995.61
2022-10-11T00:34:20.244Z,995.63
2022-10-11T00:35:20.260Z,995.71
2022-10-11T00:36:20.269Z,995.78
2022-10-11T00:37:20.257Z,995.73
2022-10-11T00:38:20.216Z,995.76
2022-10-11T00:39:20.209Z,995.80
2022-10-11T00:40:20.195Z,995.82
2022-10-11T00:41:20.246Z,995.84
2022-10-11T00:42:20.166Z,995.78
2022-10-11T00:43:20.171Z,995.82
2022-10-11T00:44:20.141Z,995.88
2022-10-11T00:45:20.153Z,995.85
2022-10-11T00:46:20.148Z,995.87
2022-10-11T00:47:20.118Z,995.86
2022-10-11T00:48:20.118Z,995.92
2022-10-11T00:49:20.110Z,995.85
2022-10-11T00:50:20.088Z,995.84
2022-10-11T00:51:20.113Z,995.88
2022-10-11T00:52:20.069Z,995.89
2022-10-11T00:53:20.078Z,995.92
2022-10-11T00:54:20.041Z,995.93
2022-10-11T00:55:20.035Z,995.95
2022-10-11T00:56:20.029Z,996.03
2022-10-11T00:57:20.036Z,995.91
2022-10-11T00:58:20.044Z,995.96
2022-10-11T00:59:20.023Z,995.99
2022-10-11T01:00:19.990Z,995.93
2022-10-11T01:01:20.062Z,995.94
2022-10-11T01:02:19.977Z,995.95
2022-10-11T01:03:19.945Z,995.93
2022-10-11T01:04:20.015Z,995.95
2022-10-11T01:05:32.567Z,996.00
2022-10-11T01:06:21.935Z,995.99
2022-10-11T01:07:19.917Z,995.97
2022-10-11T01:08:19.922Z,995.98
2022-10-11T01:09:19.912Z,995.91
2022-10-11T01:10:20.906Z,995.99
2022-10-11T01:11:19.895Z,995.96
2022-10-11T01:12:19.860Z,995.97
2022-10-11T01:13:19.858Z,995.96
2022-10-11T01:14:19.844Z,995.98
2022-10-11T01:15:19.906Z,996.04
2022-10-11T01:16:19.859Z,996.07
2022-10-11T01:17:19.821Z,996.03
2022-10-11T01:18:19.810Z,996.04
2022-10-11T01:19:19.791Z,996.02
2022-10-11T01:20:19.813Z,995.99
2022-10-11T01:21:19.775Z,996.03
2022-10-11T01:22:19.781Z,996.08
2022-10-11T01:23:19.772Z,996.00
2022-10-11T01:24:19.764Z,996.08
2022-10-11T01:25:19.943Z,996.09
2022-10-11T01:26:19.737Z,996.08
2022-10-11T01:27:19.730Z,996.09
2022-10-11T01:28:19.775Z,996.11
2022-10-11T01:29:19.685Z,996.08
2022-10-11T01:30:20.727Z,996.13
2022-10-11T01:31:19.710Z,996.11
2022-10-11T01:32:19.671Z,996.09
2022-10-11T01:33:19.664Z,996.09
2022-10-11T01:34:19.656Z,996.11
2022-10-11T01:35:19.667Z,996.11
2022-10-11T01:36:19.632Z,996.06
2022-10-11T01:37:19.626Z,996.20
2022-10-11T01:38:19.688Z,996.08
2022-10-11T01:39:19.605Z,996.09
2022-10-11T01:40:19.607Z,996.17
2022-10-11T01:41:19.585Z,996.12
2022-10-11T01:42:19.571Z,996.18
2022-10-11T01:43:19.579Z,996.14
2022-10-11T01:44:19.558Z,996.20
2022-10-11T01:45:19.544Z,996.20
2022-10-11T01:46:19.561Z,996.18
2022-10-11T01:47:19.524Z,996.21
2022-10-11T01:48:19.523Z,996.24
2022-10-11T01:49:19.513Z,996.24
2022-10-11T01:50:19.499Z,996.26
2022-10-11T01:51:19.517Z,996.24
2022-10-11T01:52:19.479Z,996.23
2022-10-11T01:53:19.486Z,996.26
2022-10-11T01:54:19.473Z,996.26
2022-10-11T01:55:19.440Z,996.31
2022-10-11T01:56:19.427Z,996.26
2022-10-11T01:57:19.426Z,996.29
2022-10-11T01:58:19.438Z,996.25
2022-10-11T01:59:19.405Z,996.23
2022-10-11T02:00:19.390Z,996.23
2022-10-11T02:01:19.422Z,996.20
2022-10-11T02:02:19.400Z,996.28
2022-10-11T02:03:19.359Z,996.20
2022-10-11T02:04:19.369Z,996.26
2022-10-11T02:05:19.341Z,996.29
2022-10-11T02:06:19.331Z,996.32
2022-10-11T02:07:19.326Z,996.34
2022-10-11T02:08:19.318Z,996.34
2022-10-11T02:09:19.326Z,996.30
2022-10-11T02:10:19.312Z,996.28
2022-10-11T02:11:19.290Z,996.35
2022-10-11T02:12:19.309Z,996.40
2022-10-11T02:13:19.270Z,996.41
2022-10-11T02:14:19.292Z,996.41
2022-10-11T02:15:19.264Z,996.49
2022-10-11T02:16:19.257Z,996.42
2022-10-11T02:17:19.245Z,996.51
2022-10-11T02:18:19.241Z,996.47
2022-10-11T02:19:19.218Z,996.46
2022-10-11T02:20:19.198Z,996.51
2022-10-11T02:21:19.205Z,996.43
2022-10-11T02:22:19.178Z,996.47
2022-10-11T02:23:19.176Z,996.47
2022-10-11T02:24:19.159Z,996.48
2022-10-11T02:25:19.142Z,996.52
2022-10-11T02:26:19.147Z,996.48
2022-10-11T02:27:19.128Z,996.50
2022-10-11T02:28:19.154Z,996.49
2022-10-11T02:29:19.108Z,996.54
2022-10-11T02:30:19.103Z,996.50
2022-10-11T02:31:19.115Z,996.54
2022-10-11T02:32:19.075Z,996.61
2022-10-11T02:33:19.076Z,996.51
2022-10-11T02:35:37.514Z,996.56
2022-10-11T02:36:37.557Z,996.52
2022-10-11T02:37:38.645Z,996.50
2022-10-11T02:38:38.631Z,996.50
2022-10-11T02:39:38.632Z,996.49
2022-10-11T02:40:38.616Z,996.57
2022-10-11T02:41:38.641Z,996.58
2022-10-11T02:42:38.590Z,996.60
2022-10-11T02:43:38.582Z,996.64
2022-10-11T02:44:38.581Z,996.65
2022-10-11T02:45:38.573Z,996.72
2022-10-11T02:46:38.557Z,996.68
2022-10-11T02:47:38.557Z,996.69
2022-10-11T02:48:38.543Z,996.67
2022-10-11T02:49:38.520Z,996.71
2022-10-11T02:50:38.517Z,996.67
2022-10-11T02:51:38.531Z,996.65
2022-10-11T02:52:38.495Z,996.70
2022-10-11T02:53:38.493Z,996.70
2022-10-11T02:54:38.496Z,996.65
2022-10-11T02:55:38.461Z,996.72
2022-10-11T02:56:38.456Z,996.73
2022-10-11T02:57:38.453Z,996.76
2022-10-11T02:58:38.439Z,996.76
2022-10-11T02:59:38.434Z,996.77
2022-10-11T03:00:38.409Z,996.75
2022-10-11T03:01:38.460Z,996.76
2022-10-11T03:02:38.412Z,996.79
2022-10-11T03:03:38.391Z,996.81
2022-10-11T03:04:38.393Z,996.86
2022-10-11T03:05:38.374Z,996.78
2022-10-11T03:06:38.378Z,996.77
2022-10-11T03:07:38.351Z,996.75
2022-10-11T03:08:38.333Z,996.69
2022-10-11T03:09:38.342Z,996.84
2022-10-11T03:10:39.319Z,996.72
2022-10-11T03:11:38.309Z,996.80
2022-10-11T03:12:38.295Z,996.80
2022-10-11T03:13:38.292Z,996.88
2022-10-11T03:14:38.302Z,996.86
2022-10-11T03:15:39.271Z,996.84
2022-10-11T03:16:38.262Z,996.87
2022-10-11T03:17:38.251Z,996.91
2022-10-11T03:18:38.243Z,996.90
2022-10-11T03:19:38.238Z,996.81
2022-10-11T03:20:38.249Z,996.86
2022-10-11T03:21:38.223Z,996.90
2022-10-11T03:22:38.208Z,996.86
2022-10-11T03:23:38.197Z,996.89
2022-10-11T03:24:38.196Z,996.85
2022-10-11T03:25:38.196Z,996.93
2022-10-11T03:26:38.156Z,996.93
2022-10-11T03:27:38.148Z,996.93
2022-10-11T03:28:38.204Z,996.98
2022-10-11T03:29:38.141Z,996.95
2022-10-11T03:30:38.138Z,996.98
2022-10-11T03:31:38.142Z,997.03
2022-10-11T03:32:38.098Z,997.00
2022-10-11T03:33:38.098Z,997.03
2022-10-11T03:34:38.080Z,997.07
2022-10-11T03:35:38.076Z,997.09
2022-10-11T03:36:38.092Z,997.09
2022-10-11T03:37:38.061Z,997.10
2022-10-11T03:38:38.050Z,997.13
2022-10-11T03:39:38.033Z,997.12
2022-10-11T03:40:39.032Z,997.16
2022-10-11T03:41:38.018Z,997.09
2022-10-11T03:42:38.030Z,997.17
2022-10-11T03:43:37.991Z,997.16
2022-10-11T03:44:37.992Z,997.21
2022-10-11T03:45:37.975Z,997.23
2022-10-11T03:46:37.976Z,997.22
2022-10-11T03:47:37.955Z,997.27
2022-10-11T03:48:37.952Z,997.28
2022-10-11T03:49:42.708Z,997.24
2022-10-11T03:50:38.932Z,997.27
2022-10-11T03:51:37.922Z,997.27
2022-10-11T03:52:37.906Z,997.30
2022-10-11T03:53:37.905Z,997.30
2022-10-11T03:54:37.899Z,997.31
2022-10-11T03:55:37.890Z,997.31
2022-10-11T03:56:37.859Z,997.29
2022-10-11T03:57:37.851Z,997.30
2022-10-11T03:58:37.839Z,997.31
2022-10-11T03:59:37.831Z,997.30
2022-10-11T04:00:37.843Z,997.32
2022-10-11T04:01:37.930Z,997.37
2022-10-11T04:02:39.342Z,997.34
2022-10-11T04:03:37.789Z,997.33
2022-10-11T04:04:37.784Z,997.30
2022-10-11T04:05:37.776Z,997.37
2022-10-11T04:06:37.778Z,997.39
2022-10-11T04:07:37.755Z,997.43
2022-10-11T04:08:37.762Z,997.40
2022-10-11T04:09:37.754Z,997.39
2022-10-11T04:10:37.719Z,997.39
2022-10-11T04:11:37.763Z,997.42
2022-10-11T04:12:37.746Z,997.39
2022-10-11T04:13:37.709Z,997.42
2022-10-11T04:14:37.687Z,997.41
2022-10-11T04:15:37.693Z,997.43
2022-10-11T04:16:37.667Z,997.42
2022-10-11T04:17:37.682Z,997.45
2022-10-11T04:18:37.656Z,997.44
2022-10-11T04:19:37.645Z,997.45
2022-10-11T04:20:37.658Z,997.42
2022-10-11T04:21:37.619Z,997.44
2022-10-11T04:22:37.611Z,997.48
2022-10-11T04:23:37.615Z,997.47
2022-10-11T04:24:37.613Z,997.46
2022-10-11T04:25:37.635Z,997.45
2022-10-11T04:26:37.575Z,997.43
2022-10-11T04:27:37.559Z,997.49
2022-10-11T04:28:37.574Z,997.49
2022-10-11T04:29:37.544Z,997.45
2022-10-11T04:30:37.550Z,997.50
2022-10-11T04:31:37.518Z,997.52
2022-10-11T04:32:37.515Z,997.56
2022-10-11T04:33:37.530Z,997.54
2022-10-11T04:34:37.490Z,997.54
2022-10-11T04:35:37.485Z,997.57
2022-10-11T04:36:37.496Z,997.59
2022-10-11T04:37:37.494Z,997.61
2022-10-11T04:38:37.462Z,997.61
2022-10-11T04:39:37.441Z,997.64
2022-10-11T04:40:37.425Z,997.65
2022-10-11T04:41:37.428Z,997.67
2022-10-11T04:42:37.462Z,997.74
2022-10-11T04:43:37.431Z,997.63
2022-10-11T04:44:37.426Z,997.72
2022-10-11T04:45:37.394Z,997.78
2022-10-11T04:46:37.375Z,997.80
2022-10-11T04:47:37.374Z,997.78
2022-10-11T04:48:37.350Z,997.78
2022-10-11T04:49:37.366Z,997.83
2022-10-11T04:50:37.336Z,997.85
2022-10-11T04:51:37.321Z,997.84
2022-10-11T04:52:37.334Z,997.82
2022-10-11T04:53:37.313Z,997.84
2022-10-11T04:54:37.295Z,997.84
2022-10-11T04:55:37.297Z,997.84
2022-10-11T04:56:37.287Z,997.86
2022-10-11T04:57:37.287Z,997.87
2022-10-11T04:58:37.256Z,997.95
2022-10-11T04:59:37.262Z,997.93
2022-10-11T05:00:37.235Z,998.00
2022-10-11T05:01:37.268Z,997.98
2022-10-11T05:02:38.219Z,997.99
2022-10-11T05:03:37.216Z,997.98
2022-10-11T05:04:37.217Z,997.98
2022-10-11T05:05:37.187Z,997.96
2022-10-11T05:06:37.185Z,997.97
2022-10-11T05:07:37.183Z,998.01
2022-10-11T05:08:37.174Z,998.02
2022-10-11T05:09:37.183Z,998.04
2022-10-11T05:10:37.138Z,998.01
2022-10-11T05:11:37.134Z,997.99
2022-10-11T05:12:37.140Z,998.01
2022-10-11T05:13:37.134Z,998.05
2022-10-11T05:14:37.108Z,998.04
2022-10-11T05:15:37.103Z,998.06
2022-10-11T05:16:37.228Z,998.07
2022-10-11T05:17:37.100Z,997.99
2022-10-11T05:18:37.069Z,998.03
2022-10-11T05:19:37.059Z,998.11
2022-10-11T05:20:37.039Z,998.11
2022-10-11T05:21:37.041Z,998.16
2022-10-11T05:22:37.053Z,998.15
2022-10-11T05:23:37.025Z,998.17
2022-10-11T05:24:37.028Z,998.22
2022-10-11T05:25:37.020Z,998.21
2022-10-11T05:26:37.014Z,998.22
2022-10-11T05:27:36.993Z,998.24
2022-10-11T05:28:37.063Z,998.31
2022-10-11T05:29:36.964Z,998.23
2022-10-11T05:30:36.974Z,998.29
2022-10-11T05:31:36.942Z,998.26
2022-10-11T05:32:36.932Z,998.35
2022-10-11T05:33:36.927Z,998.31
2022-10-11T05:34:36.915Z,998.30
2022-10-11T05:35:36.918Z,998.27
2022-10-11T05:36:36.904Z,998.32
2022-10-11T05:37:36.878Z,998.27
2022-10-11T05:38:36.880Z,998.29
2022-10-11T05:39:36.879Z,998.30
2022-10-11T05:40:36.842Z,998.22
2022-10-11T05:41:36.830Z,998.32
2022-10-11T05:42:36.843Z,998.30
2022-10-11T05:43:36.819Z,998.31
2022-10-11T05:44:36.835Z,998.33
2022-10-11T05:45:36.819Z,998.37
2022-10-11T05:46:36.785Z,998.40
2022-10-11T05:47:37.784Z,998.41
2022-10-11T05:48:36.782Z,998.37
2022-10-11T05:49:36.773Z,998.37
2022-10-11T05:50:36.774Z,998.30
2022-10-11T05:51:36.739Z,998.31
2022-10-11T05:52:36.751Z,998.35
2022-10-11T05:53:36.765Z,998.37
2022-10-11T05:54:36.776Z,998.36
2022-10-11T05:55:36.714Z,998.41
2022-10-11T05:56:36.696Z,998.35
2022-10-11T05:57:36.682Z,998.35
2022-10-11T05:58:36.684Z,998.47
2022-10-11T05:59:36.683Z,998.46
2022-10-11T06:00:36.661Z,998.41
2022-10-11T06:01:36.683Z,998.47
2022-10-11T06:02:36.652Z,998.41
2022-10-11T06:03:36.625Z,998.42
2022-10-11T06:04:36.620Z,998.45
2022-10-11T06:05:36.613Z,998.53
2022-10-11T06:06:36.602Z,998.50
2022-10-11T06:07:36.608Z,998.52
2022-10-11T06:08:36.716Z,998.49
2022-10-11T06:09:36.566Z,998.47
2022-10-11T06:10:36.565Z,998.57
2022-10-11T06:11:36.557Z,998.53
2022-10-11T06:12:36.547Z,998.54
2022-10-11T06:13:36.553Z,998.53
2022-10-11T06:14:36.562Z,998.58
2022-10-11T06:15:36.532Z,998.51
2022-10-11T06:16:36.502Z,998.55
2022-10-11T06:17:36.501Z,998.58
2022-10-11T06:18:36.491Z,998.55
2022-10-11T06:19:36.495Z,998.56
2022-10-11T06:20:36.485Z,998.59
2022-10-11T06:21:36.459Z,998.63
2022-10-11T06:22:36.455Z,998.67
2022-10-11T06:23:36.436Z,998.68
2022-10-11T06:24:36.438Z,998.68
2022-10-11T06:25:36.453Z,998.71
2022-10-11T06:26:36.425Z,998.73
2022-10-11T06:27:36.394Z,998.72
2022-10-11T06:28:36.450Z,998.71
2022-10-11T06:29:36.389Z,998.72
2022-10-11T06:30:36.372Z,998.61
2022-10-11T06:31:36.376Z,998.74
2022-10-11T06:32:36.363Z,998.72
2022-10-11T06:33:36.336Z,998.72
2022-10-11T06:34:36.320Z,998.74
2022-10-11T06:35:36.317Z,998.76
2022-10-11T06:36:36.320Z,998.69
2022-10-11T06:37:36.316Z,998.76
2022-10-11T06:38:38.807Z,998.79
2022-10-11T06:39:36.276Z,998.79
2022-10-11T06:40:36.265Z,998.79
2022-10-11T06:41:36.273Z,998.77
2022-10-11T06:42:36.245Z,998.78
2022-10-11T06:43:36.265Z,998.83
2022-10-11T06:44:36.241Z,998.81
2022-10-11T06:45:36.223Z,998.72
2022-10-11T06:46:36.222Z,998.73
2022-10-11T06:47:36.208Z,998.76
2022-10-11T06:48:36.195Z,998.69
2022-10-11T06:49:36.193Z,998.77
2022-10-11T06:50:58.686Z,998.77
2022-10-11T06:51:38.171Z,998.76
2022-10-11T06:52:36.166Z,998.78
2022-10-11T06:53:36.144Z,998.78
2022-10-11T06:54:36.131Z,998.73
2022-10-11T06:55:36.129Z,998.74
2022-10-11T06:56:36.142Z,998.78
2022-10-11T06:57:36.113Z,998.79
2022-10-11T06:58:36.092Z,998.81
2022-10-11T06:59:36.095Z,998.82
2022-10-11T07:00:36.069Z,998.86
2022-10-11T07:01:36.144Z,998.85
2022-10-11T07:02:36.051Z,998.93
2022-10-11T07:03:36.036Z,998.93
2022-10-11T07:04:36.031Z,998.91
2022-10-11T07:05:36.017Z,998.93
2022-10-11T07:06:36.009Z,998.94
2022-10-11T07:07:36.004Z,998.96
2022-10-11T07:08:36.015Z,999.02
2022-10-11T07:09:35.999Z,998.99
2022-10-11T07:10:35.997Z,999.03
2022-10-11T07:11:35.983Z,998.99
2022-10-11T07:12:35.952Z,999.04
2022-10-11T07:13:36.082Z,999.08
2022-10-11T07:14:35.989Z,999.11
2022-10-11T07:15:35.941Z,999.09
2022-10-11T07:16:35.916Z,999.15
2022-10-11T07:17:35.906Z,999.15
2022-10-11T07:18:35.918Z,999.13
2022-10-11T07:19:35.993Z,999.11
2022-10-11T07:20:35.883Z,999.16
2022-10-11T07:21:35.883Z,999.19
2022-10-11T07:22:35.857Z,999.04
2022-10-11T07:23:35.850Z,999.06
2022-10-11T07:24:35.827Z,999.06
2022-10-11T07:25:35.846Z,999.09
2022-10-11T07:26:38.764Z,999.09
2022-10-11T07:27:36.816Z,999.06
2022-10-11T07:28:35.855Z,999.15
2022-10-11T07:29:35.785Z,999.07
2022-10-11T07:30:35.805Z,999.11
2022-10-11T07:31:35.765Z,999.18
2022-10-11T07:32:35.757Z,999.16
2022-10-11T07:33:35.752Z,999.11
2022-10-11T07:34:35.733Z,999.11
2022-10-11T07:35:35.731Z,999.09
2022-10-11T07:36:35.748Z,999.12
2022-10-11T07:37:35.718Z,999.15
2022-10-11T07:38:35.708Z,999.20
2022-10-11T07:39:35.697Z,999.18
2022-10-11T07:40:35.691Z,999.19
2022-10-11T07:41:35.701Z,999.14
2022-10-11T07:42:35.670Z,999.22
2022-10-11T07:43:35.659Z,999.23
2022-10-11T07:44:35.649Z,999.29
2022-10-11T07:45:35.628Z,999.22
2022-10-11T07:46:35.651Z,999.32
2022-10-11T07:47:35.617Z,999.27
2022-10-11T07:48:35.604Z,999.22
2022-10-11T07:49:35.603Z,999.19
2022-10-11T07:50:35.599Z,999.19
2022-10-11T07:51:35.581Z,999.17
2022-10-11T07:52:35.584Z,999.22
2022-10-11T07:53:35.561Z,999.19
2022-10-11T07:54:35.553Z,999.18
2022-10-11T07:55:35.532Z,999.13
2022-10-11T07:56:35.563Z,999.16
2022-10-11T07:57:35.528Z,999.17
2022-10-11T07:58:35.510Z,999.13
2022-10-11T07:59:35.505Z,999.13
2022-10-11T08:00:35.502Z,999.13
2022-10-11T08:01:35.585Z,999.10
2022-10-11T08:02:35.474Z,999.12
2022-10-11T08:03:35.489Z,999.14
2022-10-11T08:04:35.482Z,999.13
2022-10-11T08:05:35.441Z,999.05
2022-10-11T08:06:35.439Z,999.09
2022-10-11T08:07:35.445Z,999.10
2022-10-11T08:08:35.419Z,999.14
2022-10-11T08:09:35.422Z,999.09
2022-10-11T08:10:35.421Z,999.09
2022-10-11T08:11:35.392Z,999.12
2022-10-11T08:12:35.396Z,999.12
2022-10-11T08:13:35.377Z,999.14
2022-10-11T08:14:35.381Z,999.12
2022-10-11T08:15:35.347Z,999.12
2022-10-11T08:16:35.329Z,999.04
2022-10-11T08:17:35.325Z,999.10
2022-10-11T08:18:35.335Z,999.11
2022-10-11T08:19:35.310Z,999.09
2022-10-11T08:20:35.310Z,999.06
2022-10-11T08:21:35.308Z,999.05
2022-10-11T08:22:35.283Z,999.08
2022-10-11T08:23:35.272Z,999.08
2022-10-11T08:24:38.297Z,999.10
2022-10-11T08:25:38.781Z,999.18
2022-10-11T08:26:35.262Z,999.14
2022-10-11T08:27:35.241Z,999.02
2022-10-11T08:28:35.312Z,999.04
2022-10-11T08:29:35.219Z,999.03
2022-10-11T08:30:35.204Z,999.07
2022-10-11T08:31:35.195Z,999.22
2022-10-11T08:32:35.205Z,999.16
2022-10-11T08:33:40.649Z,999.15
2022-10-11T08:35:07.061Z,999.14
2022-10-11T08:35:35.151Z,999.07
2022-10-11T08:36:35.165Z,999.10
2022-10-11T08:37:35.131Z,999.10
2022-10-11T08:38:35.117Z,999.09
2022-10-11T08:39:35.115Z,999.10
2022-10-11T08:40:35.479Z,999.16
2022-10-11T08:41:35.140Z,999.19
2022-10-11T08:42:35.088Z,999.17
2022-10-11T08:43:35.079Z,999.23
2022-10-11T08:44:58.184Z,999.19
2022-10-11T08:45:37.061Z,999.17
2022-10-11T08:46:35.092Z,999.17
2022-10-11T08:47:35.092Z,999.15
2022-10-11T08:48:35.043Z,999.13
2022-10-11T08:49:35.055Z,999.14
2022-10-11T08:50:35.022Z,999.18
2022-10-11T08:51:34.999Z,999.20
2022-10-11T08:52:35.002Z,999.17
2022-10-11T08:53:34.982Z,999.18
2022-10-11T08:54:34.985Z,999.20
2022-10-11T08:55:34.965Z,999.13
2022-10-11T08:56:34.958Z,999.20
2022-10-11T08:57:34.943Z,999.25
2022-10-11T08:58:34.937Z,999.22
2022-10-11T08:59:34.939Z,999.20
2022-10-11T09:00:34.919Z,999.18
2022-10-11T09:01:34.997Z,999.15
2022-10-11T09:02:55.795Z,999.19
2022-10-11T09:03:36.894Z,999.17
2022-10-11T09:04:34.893Z,999.17
2022-10-11T09:05:34.857Z,999.13
2022-10-11T09:06:34.883Z,999.14
2022-10-11T09:07:34.839Z,999.15
2022-10-11T09:08:34.845Z,999.10
2022-10-11T09:09:34.832Z,999.11
2022-10-11T09:10:34.812Z,999.12
2022-10-11T09:11:34.827Z,999.06
2022-10-11T09:12:39.794Z,999.16
2022-10-11T09:13:35.795Z,999.13
2022-10-11T09:14:34.785Z,999.19
2022-10-11T09:15:34.789Z,999.16
2022-10-11T09:16:34.770Z,999.21
2022-10-11T09:17:34.746Z,999.15
2022-10-11T09:18:34.736Z,999.15
2022-10-11T09:19:34.729Z,999.14
2022-10-11T09:20:35.735Z,999.20
2022-10-11T09:21:34.748Z,999.10
2022-10-11T09:22:34.737Z,999.15
2022-10-11T09:23:34.681Z,999.15
2022-10-11T09:24:34.680Z,999.12
2022-10-11T09:25:34.662Z,999.13
2022-10-11T09:26:34.663Z,999.14
2022-10-11T09:27:57.848Z,999.13
2022-10-11T09:28:35.712Z,999.16
2022-10-11T09:29:34.625Z,999.17
2022-10-11T09:30:34.615Z,999.17
2022-10-11T09:31:34.629Z,999.09
2022-10-11T09:32:34.601Z,999.18
2022-10-11T09:33:34.583Z,999.11
2022-10-11T09:34:34.586Z,999.09
2022-10-11T09:35:34.585Z,999.04
2022-10-11T09:36:34.556Z,999.09
2022-10-11T09:37:34.550Z,999.17
2022-10-11T09:38:34.535Z,999.11
2022-10-11T09:39:34.539Z,999.15
2022-10-11T09:40:34.524Z,999.07
2022-10-11T09:41:34.512Z,999.14
2022-10-11T09:42:34.513Z,999.07
2022-10-11T09:43:34.486Z,999.08
2022-10-11T09:44:34.507Z,999.08
2022-10-11T09:45:34.485Z,999.10
2022-10-11T09:46:34.458Z,999.08
2022-10-11T09:47:34.458Z,999.05
2022-10-11T09:48:34.467Z,999.04
2022-10-11T09:49:34.432Z,998.99
2022-10-11T09:50:34.435Z,999.04
2022-10-11T09:51:34.419Z,998.97
2022-10-11T09:52:34.415Z,998.89
2022-10-11T09:53:34.401Z,998.97
2022-10-11T09:54:34.376Z,998.99
2022-10-11T09:55:34.379Z,998.99
2022-10-11T09:56:34.355Z,999.04
2022-10-11T09:57:34.360Z,999.01
2022-10-11T09:58:34.372Z,999.01
2022-10-11T09:59:34.343Z,999.04
2022-10-11T10:00:34.323Z,999.07
2022-10-11T10:01:34.357Z,999.08
2022-10-11T10:02:34.307Z,999.08
2022-10-11T10:03:34.305Z,999.07
2022-10-11T10:04:34.310Z,999.06
2022-10-11T10:05:34.304Z,999.12
2022-10-11T10:06:34.268Z,999.11
2022-10-11T10:07:34.270Z,999.08
2022-10-11T10:08:34.246Z,999.15
2022-10-11T10:09:34.271Z,999.12
2022-10-11T10:10:34.243Z,999.14
2022-10-11T10:11:34.217Z,999.15
2022-10-11T10:12:35.225Z,999.17
2022-10-11T10:13:34.208Z,999.14
2022-10-11T10:14:34.178Z,999.12
2022-10-11T10:15:35.190Z,999.07
2022-10-11T10:16:34.184Z,999.16
2022-10-11T10:17:34.158Z,999.16
2022-10-11T10:18:34.150Z,999.09
2022-10-11T10:19:34.170Z,999.11
2022-10-11T10:20:34.126Z,999.11
2022-10-11T10:21:35.146Z,999.17
2022-10-11T10:22:34.130Z,999.14
2022-10-11T10:23:34.115Z,999.15
2022-10-11T10:24:34.095Z,999.15
2022-10-11T10:25:34.148Z,999.13
2022-10-11T10:26:34.068Z,999.18
2022-10-11T10:27:35.053Z,999.18
2022-10-11T10:28:34.180Z,999.10
2022-10-11T10:29:34.047Z,999.17
2022-10-11T10:30:35.695Z,999.16
2022-10-11T10:31:44.422Z,999.19
2022-10-11T10:32:36.002Z,999.16
2022-10-11T10:33:34.004Z,999.13
2022-10-11T10:34:33.976Z,999.16
2022-10-11T10:35:33.996Z,999.12
2022-10-11T10:36:33.968Z,999.14
2022-10-11T10:37:33.963Z,999.19
2022-10-11T10:38:33.961Z,999.12
2022-10-11T10:39:33.927Z,999.17
2022-10-11T10:40:33.930Z,999.08
2022-10-11T10:41:33.911Z,999.13
2022-10-11T10:42:33.901Z,999.10
2022-10-11T10:43:33.908Z,999.13
2022-10-11T10:44:33.909Z,999.13
2022-10-11T10:45:33.917Z,999.07
2022-10-11T10:46:33.858Z,999.05
2022-10-11T10:47:33.869Z,999.10
2022-10-11T10:49:01.767Z,999.07
2022-10-11T10:49:53.072Z,999.06
2022-10-11T10:50:35.863Z,999.05
2022-10-11T10:51:33.815Z,999.14
2022-10-11T10:52:33.821Z,999.09
2022-10-11T10:53:33.797Z,999.13
2022-10-11T10:54:33.798Z,999.07
2022-10-11T10:55:33.804Z,999.08
2022-10-11T10:56:33.776Z,999.14
2022-10-11T10:57:33.755Z,999.08
2022-10-11T10:58:33.761Z,999.04
2022-10-11T10:59:33.747Z,999.08
2022-10-11T11:00:33.729Z,999.05
2022-10-11T11:01:33.795Z,999.08
2022-10-11T11:02:40.860Z,999.07
2022-10-11T11:03:35.723Z,999.05
2022-10-11T11:04:33.688Z,999.00
2022-10-11T11:05:33.679Z,999.03
2022-10-11T11:06:36.447Z,999.03
2022-10-11T11:07:33.667Z,999.00
2022-10-11T11:08:33.660Z,998.93
2022-10-11T11:09:33.643Z,998.94
2022-10-11T11:10:33.633Z,998.97
2022-10-11T11:11:33.643Z,998.91
2022-10-11T11:12:33.626Z,998.96
2022-10-11T11:13:33.603Z,998.91
2022-10-11T11:14:33.624Z,998.92
2022-10-11T11:15:37.762Z,998.90
2022-10-11T11:16:34.600Z,998.88
2022-10-11T11:17:33.578Z,998.94
2022-10-11T11:18:33.566Z,998.88
2022-10-11T11:19:33.567Z,998.90
2022-10-11T11:20:33.549Z,998.94
2022-10-11T11:21:34.986Z,998.94
2022-10-11T11:22:33.511Z,998.88
2022-10-11T11:23:33.501Z,998.82
2022-10-11T11:24:33.517Z,998.82
2022-10-11T11:25:33.481Z,998.82
2022-10-11T11:26:33.473Z,998.85
2022-10-11T11:27:33.465Z,998.87
2022-10-11T11:28:33.519Z,998.80
2022-10-11T11:29:33.444Z,998.86
2022-10-11T11:30:33.456Z,998.83
2022-10-11T11:31:33.421Z,998.84
2022-10-11T11:32:33.442Z,998.77
2022-10-11T11:33:33.412Z,998.76
2022-10-11T11:34:33.401Z,998.77
2022-10-11T11:35:33.403Z,998.77
2022-10-11T11:36:33.379Z,998.87
2022-10-11T11:37:33.398Z,998.81
2022-10-11T11:38:33.364Z,998.76
2022-10-11T11:39:33.345Z,998.79
2022-10-11T11:40:33.338Z,998.79
2022-10-11T11:41:33.327Z,998.81
2022-10-11T11:42:33.313Z,998.82
2022-10-11T11:43:33.345Z,998.73
2022-10-11T11:44:33.299Z,998.79
2022-10-11T11:45:33.290Z,998.76
2022-10-11T11:46:33.284Z,998.81
2022-10-11T11:47:33.262Z,998.84
2022-10-11T11:48:33.281Z,998.83
2022-10-11T11:49:33.306Z,998.77
2022-10-11T11:50:34.387Z,998.70
2022-10-11T11:51:33.224Z,998.65
2022-10-11T11:52:33.226Z,998.72
2022-10-11T11:53:34.226Z,998.70
2022-10-11T11:54:33.204Z,998.75
2022-10-11T11:55:33.193Z,998.70
2022-10-11T11:56:33.165Z,998.70
2022-10-11T11:57:33.177Z,998.69
2022-10-11T11:58:33.163Z,998.69
2022-10-11T11:59:33.176Z,998.68
2022-10-11T12:00:33.142Z,998.70
2022-10-11T12:01:33.123Z,998.73
2022-10-11T12:02:33.108Z,998.69
2022-10-11T12:03:33.852Z,998.68
2022-10-11T12:04:33.126Z,998.71
2022-10-11T12:05:33.086Z,998.67
2022-10-11T12:06:33.077Z,998.63
2022-10-11T12:07:33.095Z,998.65
2022-10-11T12:08:33.061Z,998.62
2022-10-11T12:09:33.047Z,998.64
2022-10-11T12:10:33.058Z,998.67
2022-10-11T12:11:35.476Z,998.66
2022-10-11T12:12:33.039Z,998.68
2022-10-11T12:13:33.010Z,998.65
2022-10-11T12:14:33.062Z,998.58
2022-10-11T12:15:33.017Z,998.64
2022-10-11T12:16:33.070Z,998.60
2022-10-11T12:17:32.976Z,998.60
2022-10-11T12:18:32.964Z,998.57
2022-10-11T12:19:32.957Z,998.62
2022-10-11T12:20:32.980Z,998.59
2022-10-11T12:21:32.932Z,998.62
2022-10-11T12:22:33.920Z,998.63
2022-10-11T12:23:32.926Z,998.60
2022-10-11T12:24:32.915Z,998.60
2022-10-11T12:25:32.919Z,998.58
2022-10-11T12:26:32.903Z,998.52
2022-10-11T12:27:32.878Z,998.54
2022-10-11T12:28:32.924Z,998.50
2022-10-11T12:29:32.878Z,998.54